createdAt,value
2018-05-14T00:01:34.749Z,101359.15
2018-05-14T00:04:00.897Z,101365.81
2018-05-14T00:06:27.030Z,101360.09
2018-05-14T00:08:53.238Z,101364.55
2018-05-14T00:11:19.702Z,101363.77
2018-05-14T00:13:46.135Z,101358.52
2018-05-14T00:16:12.363Z,101357.69
2018-05-14T00:18:38.638Z,101358.67
2018-05-14T00:21:04.768Z,101362.27
2018-05-14T00:23:30.937Z,101355.70
2018-05-14T00:25:57.109Z,101359.77
2018-05-14T00:28:23.329Z,101361.53
2018-05-14T00:30:49.613Z,101359.67
2018-05-14T00:33:15.753Z,101358.34
2018-05-14T00:35:41.884Z,101359.22
2018-05-14T00:38:08.057Z,101361.04
2018-05-14T00:40:34.202Z,101365.01
2018-05-14T00:43:00.486Z,101362.41
2018-05-14T00:45:26.894Z,101361.14
2018-05-14T00:47:53.291Z,101358.99
2018-05-14T00:50:19.489Z,101359.09
2018-05-14T00:52:45.620Z,101373.20
2018-05-14T00:55:17.274Z,101360.91
2018-05-14T00:57:43.426Z,101365.81
2018-05-14T01:00:09.897Z,101363.66
2018-05-14T01:02:36.429Z,101366.35
2018-05-14T01:05:02.608Z,101362.43
2018-05-14T01:07:28.742Z,101367.77
2018-05-14T01:09:54.904Z,101366.45
2018-05-14T01:12:21.042Z,101359.44
2018-05-14T01:14:47.219Z,101365.67
2018-05-14T01:17:13.356Z,101365.66
2018-05-14T01:19:39.970Z,101360.88
2018-05-14T01:22:06.114Z,101360.88
2018-05-14T01:24:32.281Z,101364.95
2018-05-14T01:26:58.551Z,101358.86
2018-05-14T01:29:24.684Z,101363.77
2018-05-14T01:31:50.819Z,101368.23
2018-05-14T01:34:17.106Z,101369.50
2018-05-14T01:36:43.238Z,101371.20
2018-05-14T01:39:09.361Z,101369.41
2018-05-14T01:41:35.525Z,101373.45
2018-05-14T01:44:01.695Z,101369.10
2018-05-14T01:46:27.841Z,101374.39
2018-05-14T01:48:54.310Z,101372.23
2018-05-14T01:51:20.449Z,101369.20
2018-05-14T01:53:46.595Z,101370.08
2018-05-14T01:56:12.881Z,101370.09
2018-05-14T01:58:39.014Z,101370.19
2018-05-14T02:01:05.147Z,101377.29
2018-05-14T02:03:31.319Z,101380.86
2018-05-14T02:05:57.848Z,101380.47
2018-05-14T02:08:23.983Z,101378.31
2018-05-14T02:10:50.154Z,101374.84
2018-05-14T02:13:16.327Z,101379.73
2018-05-14T02:15:43.176Z,101378.45
2018-05-14T02:18:09.604Z,101379.35
2018-05-14T02:20:35.739Z,101378.06
2018-05-14T02:23:01.894Z,101379.44
2018-05-14T02:25:28.042Z,101380.80
2018-05-14T02:27:54.202Z,101379.09
2018-05-14T02:30:20.642Z,101379.15
2018-05-14T02:32:46.853Z,101386.20
2018-05-14T02:35:13.006Z,101383.66
2018-05-14T02:37:39.179Z,101384.15
2018-05-14T02:40:05.385Z,101388.61
2018-05-14T02:42:31.537Z,101384.25
2018-05-14T02:44:57.680Z,101383.81
2018-05-14T02:47:23.967Z,101385.72
2018-05-14T02:49:50.098Z,101382.81
2018-05-14T02:52:16.235Z,101384.68
2018-05-14T02:54:43.132Z,101383.02
2018-05-14T02:57:09.266Z,101392.35
2018-05-14T02:59:35.690Z,101383.15
2018-05-14T03:02:02.121Z,101381.44
2018-05-14T03:04:29.064Z,101383.25
2018-05-14T03:06:55.601Z,101387.16
2018-05-14T03:09:21.732Z,101384.43
2018-05-14T03:11:47.942Z,101384.86
2018-05-14T03:14:14.080Z,101391.52
2018-05-14T03:16:40.289Z,101392.00
2018-05-14T03:19:06.499Z,101388.05
2018-05-14T03:21:32.973Z,101393.77
2018-05-14T03:23:59.401Z,101393.42
2018-05-14T03:26:27.916Z,101398.27
2018-05-14T03:29:00.979Z,101396.37
2018-05-14T03:31:27.258Z,101405.13
2018-05-14T03:33:53.401Z,101398.48
2018-05-14T03:36:19.545Z,101401.61
2018-05-14T03:38:45.713Z,101409.98
2018-05-14T03:41:11.858Z,101412.23
2018-05-14T03:43:38.481Z,101412.72
2018-05-14T03:46:04.644Z,101413.65
2018-05-14T03:48:30.823Z,101418.14
2018-05-14T03:50:57.353Z,101412.55
2018-05-14T03:53:23.570Z,101419.20
2018-05-14T03:55:49.721Z,101416.61
2018-05-14T03:58:28.216Z,101416.66
2018-05-14T04:01:06.457Z,101426.83
2018-05-14T04:03:44.656Z,101420.22
2018-05-14T04:06:23.044Z,101427.31
2018-05-14T04:08:49.241Z,101425.47
2018-05-14T04:11:15.389Z,101435.95
2018-05-14T04:13:41.598Z,101433.17
2018-05-14T04:16:07.747Z,101438.39
2018-05-14T04:18:34.040Z,101441.47
2018-05-14T04:21:00.216Z,101437.95
2018-05-14T04:23:26.432Z,101438.03
2018-05-14T04:25:52.631Z,101444.05
2018-05-14T04:28:18.806Z,101450.84
2018-05-14T04:30:45.017Z,101448.61
2018-05-14T04:33:11.156Z,101450.36
2018-05-14T04:35:37.309Z,101445.33
2018-05-14T04:38:03.494Z,101447.28
2018-05-14T04:40:29.643Z,101446.08
2018-05-14T04:42:55.847Z,101453.69
2018-05-14T04:45:22.079Z,101453.64
2018-05-14T04:47:48.247Z,101446.72
2018-05-14T04:50:14.411Z,101452.16
2018-05-14T04:52:40.590Z,101453.13
2018-05-14T04:55:06.766Z,101460.72
2018-05-14T04:57:33.057Z,101455.77
2018-05-14T04:59:59.214Z,101459.80
2018-05-14T05:02:25.361Z,101459.60
2018-05-14T05:04:51.563Z,101465.48
2018-05-14T05:07:17.718Z,101465.56
2018-05-14T05:09:44.011Z,101466.16
2018-05-14T05:12:10.178Z,101474.13
2018-05-14T05:14:36.326Z,101468.32
2018-05-14T05:17:02.535Z,101467.28
2018-05-14T05:19:28.689Z,101477.80
2018-05-14T05:21:54.914Z,101475.77
2018-05-14T05:24:21.061Z,101477.89
2018-05-14T05:26:47.492Z,101480.91
2018-05-14T05:29:13.637Z,101479.42
2018-05-14T05:31:39.808Z,101479.97
2018-05-14T05:34:06.025Z,101473.82
2018-05-14T05:36:32.179Z,101474.66
2018-05-14T05:38:58.324Z,101476.90
2018-05-14T05:41:24.559Z,101478.55
2018-05-14T05:43:50.713Z,101480.06
2018-05-14T05:46:16.893Z,101486.83
2018-05-14T05:48:43.110Z,101483.45
2018-05-14T05:51:09.286Z,101485.38
2018-05-14T05:53:35.523Z,101486.17
2018-05-14T05:56:01.735Z,101485.55
2018-05-14T05:58:27.915Z,101482.83
2018-05-14T06:00:54.072Z,101486.52
2018-05-14T06:03:20.251Z,101493.19
2018-05-14T06:05:46.429Z,101497.59
2018-05-14T06:08:12.633Z,101491.59
2018-05-14T06:10:38.952Z,101495.20
2018-05-14T06:13:05.146Z,101499.20
2018-05-14T06:15:31.375Z,101496.80
2018-05-14T06:17:57.534Z,101496.05
2018-05-14T06:20:23.738Z,101498.66
2018-05-14T06:22:50.269Z,101497.92
2018-05-14T06:25:16.870Z,101495.01
2018-05-14T06:27:43.140Z,101505.21
2018-05-14T06:30:09.676Z,101498.24
2018-05-14T06:32:35.835Z,101492.01
2018-05-14T06:35:02.047Z,101483.80
2018-05-14T06:37:28.194Z,101490.23
2018-05-14T06:39:54.389Z,101494.76
2018-05-14T06:42:20.574Z,101496.64
2018-05-14T06:44:46.827Z,101498.92
2018-05-14T06:47:12.971Z,101502.36
2018-05-14T06:49:39.142Z,101507.45
2018-05-14T06:52:05.315Z,101503.12
2018-05-14T06:54:31.618Z,101502.64
2018-05-14T06:56:57.770Z,101504.76
2018-05-14T06:59:23.945Z,101500.19
2018-05-14T07:01:50.122Z,101497.50
2018-05-14T07:04:16.298Z,101498.21
2018-05-14T07:06:42.490Z,101500.38
2018-05-14T07:09:08.661Z,101499.77
2018-05-14T07:11:35.186Z,101501.84
2018-05-14T07:14:08.514Z,101507.96
2018-05-14T07:16:34.973Z,101511.27
2018-05-14T07:19:01.128Z,101508.86
2018-05-14T07:21:27.580Z,101512.83
2018-05-14T07:23:53.739Z,101516.03
2018-05-14T07:26:19.880Z,101515.91
2018-05-14T07:28:46.075Z,101520.40
2018-05-14T07:31:12.320Z,101517.63
2018-05-14T07:33:38.477Z,101519.03
2018-05-14T07:36:04.805Z,101518.11
2018-05-14T07:38:30.947Z,101523.39
2018-05-14T07:40:57.130Z,101525.16
2018-05-14T07:43:23.325Z,101527.76
2018-05-14T07:45:49.470Z,101524.86
2018-05-14T07:48:15.773Z,101530.18
2018-05-14T07:50:41.923Z,101526.78
2018-05-14T07:53:08.079Z,101524.73
2018-05-14T07:55:34.264Z,101526.70
2018-05-14T07:58:00.422Z,101531.06
2018-05-14T08:00:26.638Z,101525.16
2018-05-14T08:02:52.790Z,101531.38
2018-05-14T08:05:19.137Z,101528.64
2018-05-14T08:07:45.371Z,101530.85
2018-05-14T08:10:11.518Z,101533.70
2018-05-14T08:12:37.690Z,101539.00
2018-05-14T08:15:03.871Z,101531.51
2018-05-14T08:17:30.037Z,101535.43
2018-05-14T08:19:56.177Z,101532.70
2018-05-14T08:22:22.581Z,101536.13
2018-05-14T08:24:48.731Z,101531.19
2018-05-14T08:27:14.926Z,101528.14
2018-05-14T08:29:41.131Z,101531.48
2018-05-14T08:32:07.372Z,101527.61
2018-05-14T08:34:33.602Z,101524.87
2018-05-14T08:36:59.803Z,101528.66
2018-05-14T08:39:26.043Z,101529.09
2018-05-14T08:41:52.212Z,101527.20
2018-05-14T08:44:18.454Z,101532.75
2018-05-14T08:46:44.700Z,101529.22
2018-05-14T08:49:10.952Z,101527.77
2018-05-14T08:51:37.284Z,101527.66
2018-05-14T08:54:03.564Z,101525.45
2018-05-14T08:56:29.905Z,101524.92
2018-05-14T08:58:56.084Z,101527.87
2018-05-14T09:01:22.269Z,101523.33
2018-05-14T09:03:48.463Z,101527.25
2018-05-14T09:06:14.626Z,101537.64
2018-05-14T09:08:40.902Z,101541.07
2018-05-14T09:11:07.046Z,101534.41
2018-05-14T09:13:33.240Z,101533.92
2018-05-14T09:15:59.439Z,101536.91
2018-05-14T09:18:25.646Z,101535.05
2018-05-14T09:20:51.802Z,101533.62
2018-05-14T09:23:18.008Z,101537.45
2018-05-14T09:25:44.166Z,101526.28
2018-05-14T09:28:10.311Z,101529.79
2018-05-14T09:30:36.482Z,101530.19
2018-05-14T09:33:02.626Z,101528.77
2018-05-14T09:35:29.053Z,101529.22
2018-05-14T09:37:55.212Z,101526.95
2018-05-14T09:40:21.630Z,101529.99
2018-05-14T09:42:47.829Z,101536.42
2018-05-14T09:45:14.063Z,101538.04
2018-05-14T09:47:40.262Z,101532.68
2018-05-14T09:50:06.470Z,101539.16
2018-05-14T09:52:33.103Z,101531.56
2018-05-14T09:54:59.268Z,101534.55
2018-05-14T09:57:25.602Z,101530.53
2018-05-14T09:59:51.841Z,101531.75
2018-05-14T10:02:18.075Z,101535.63
2018-05-14T10:04:44.240Z,101532.33
2018-05-14T10:09:43.139Z,101533.63
2018-05-14T10:12:09.459Z,101526.41
2018-05-14T10:14:35.782Z,101530.23
2018-05-14T10:17:01.964Z,101527.42
2018-05-14T10:19:28.232Z,101528.16
2018-05-14T10:21:54.384Z,101523.83
2018-05-14T10:24:20.570Z,101528.08
2018-05-14T10:26:47.007Z,101535.16
2018-05-14T10:29:13.222Z,101527.70
2018-05-14T10:31:39.456Z,101534.39
2018-05-14T10:34:05.605Z,101537.36
2018-05-14T10:36:31.837Z,101531.45
2018-05-14T10:38:57.988Z,101528.10
2018-05-14T10:41:24.210Z,101527.05
2018-05-14T10:43:50.389Z,101535.69
2018-05-14T10:46:16.530Z,101529.77
2018-05-14T10:48:42.744Z,101531.38
2018-05-14T10:51:08.881Z,101532.53
2018-05-14T10:53:35.026Z,101524.91
2018-05-14T10:56:01.207Z,101531.33
2018-05-14T10:58:27.421Z,101529.89
2018-05-14T11:00:53.598Z,101524.42
2018-05-14T11:03:19.740Z,101530.39
2018-05-14T11:05:45.923Z,101524.52
2018-05-14T11:08:12.062Z,101527.63
2018-05-14T11:10:38.344Z,101532.48
2018-05-14T11:13:04.422Z,101527.46
2018-05-14T11:15:30.630Z,101528.78
2018-05-14T11:17:56.777Z,101527.51
2018-05-14T11:20:24.457Z,101522.88
2018-05-14T11:22:52.503Z,101523.06
2018-05-14T11:25:20.703Z,101525.88
2018-05-14T11:27:46.887Z,101524.88
2018-05-14T11:30:13.161Z,101521.39
2018-05-14T11:32:39.299Z,101525.97
2018-05-14T11:35:05.445Z,101528.52
2018-05-14T11:37:31.626Z,101528.30
2018-05-14T11:39:57.829Z,101535.14
2018-05-14T11:42:24.135Z,101533.97
2018-05-14T11:44:50.276Z,101534.61
2018-05-14T11:47:16.422Z,101532.28
2018-05-14T11:49:42.603Z,101534.81
2018-05-14T11:52:08.740Z,101536.47
2018-05-14T11:54:35.322Z,101531.44
2018-05-14T11:57:01.526Z,101533.53
2018-05-14T11:59:27.684Z,101535.17
2018-05-14T12:01:54.309Z,101535.49
2018-05-14T12:04:20.460Z,101532.79
2018-05-14T12:06:46.613Z,101530.04
2018-05-14T12:09:12.794Z,101534.93
2018-05-14T12:11:38.963Z,101533.16
2018-05-14T12:14:05.487Z,101533.08
2018-05-14T12:16:31.667Z,101529.34
2018-05-14T12:18:57.873Z,101533.09
2018-05-14T12:21:24.094Z,101526.27
2018-05-14T12:23:50.254Z,101528.37
2018-05-14T12:26:16.444Z,101534.00
2018-05-14T12:28:43.309Z,101530.02
2018-05-14T12:31:09.467Z,101530.84
2018-05-14T12:33:35.649Z,101533.33
2018-05-14T12:36:01.843Z,101537.57
2018-05-14T12:38:27.996Z,101534.73
2018-05-14T12:40:54.211Z,101530.98
2018-05-14T12:43:22.712Z,101528.53
2018-05-14T12:45:49.286Z,101528.84
2018-05-14T12:48:15.460Z,101534.93
2018-05-14T12:50:41.622Z,101530.30
2018-05-14T12:53:07.782Z,101535.05
2018-05-14T12:55:33.934Z,101524.85
2018-05-14T12:58:00.317Z,101525.31
2018-05-14T13:00:26.604Z,101521.75
2018-05-14T13:02:52.981Z,101528.34
2018-05-14T13:05:19.139Z,101524.66
2018-05-14T13:07:45.501Z,101516.19
2018-05-14T13:10:11.621Z,101520.95
2018-05-14T13:12:37.997Z,101526.17
2018-05-14T13:15:04.184Z,101527.44
2018-05-14T13:17:30.402Z,101526.09
2018-05-14T13:19:56.718Z,101525.10
2018-05-14T13:22:23.132Z,101532.05
2018-05-14T13:24:49.304Z,101533.77
2018-05-14T13:27:15.495Z,101530.60
2018-05-14T13:29:41.689Z,101519.50
2018-05-14T13:32:07.938Z,101526.98
2018-05-14T13:34:34.042Z,101528.69
2018-05-14T13:37:00.304Z,101536.98
2018-05-14T13:39:26.465Z,101539.00
2018-05-14T13:41:52.629Z,101539.83
2018-05-14T13:44:19.148Z,101537.17
2018-05-14T13:46:45.502Z,101540.70
2018-05-14T13:49:11.886Z,101535.72
2018-05-14T13:51:38.066Z,101530.33
2018-05-14T13:54:04.486Z,101538.19
2018-05-14T13:56:30.677Z,101541.17
2018-05-14T13:58:56.836Z,101535.76
2018-05-14T14:01:23.142Z,101541.39
2018-05-14T14:03:49.301Z,101538.66
2018-05-14T14:06:15.733Z,101545.14
2018-05-14T14:08:41.909Z,101537.07
2018-05-14T14:11:08.054Z,101538.23
2018-05-14T14:13:34.224Z,101546.45
2018-05-14T14:16:00.383Z,101544.92
2018-05-14T14:18:26.943Z,101544.72
2018-05-14T14:20:53.099Z,101539.98
2018-05-14T14:23:19.299Z,101532.11
2018-05-14T14:25:45.487Z,101538.73
2018-05-14T14:28:11.665Z,101536.78
2018-05-14T14:30:37.968Z,101536.67
2018-05-14T14:33:04.189Z,101537.08
2018-05-14T14:35:30.567Z,101540.53
2018-05-14T14:37:56.977Z,101537.75
2018-05-14T14:40:23.137Z,101540.77
2018-05-14T14:42:49.353Z,101537.80
2018-05-14T14:45:15.507Z,101537.87
2018-05-14T14:47:41.791Z,101537.86
2018-05-14T14:50:07.955Z,101541.05
2018-05-14T14:52:34.093Z,101537.58
2018-05-14T14:55:00.735Z,101541.63
2018-05-14T14:57:26.881Z,101541.16
2018-05-14T14:59:53.044Z,101536.11
2018-05-14T15:02:19.470Z,101544.36
2018-05-14T15:04:45.631Z,101539.86
2018-05-14T15:07:11.794Z,101535.26
2018-05-14T15:09:38.210Z,101540.45
2018-05-14T15:12:04.357Z,101542.14
2018-05-14T15:14:30.794Z,101544.31
2018-05-14T15:16:56.943Z,101541.45
2018-05-14T15:19:23.477Z,101538.42
2018-05-14T15:21:49.647Z,101539.98
2018-05-14T15:24:15.858Z,101533.78
2018-05-14T15:26:42.018Z,101535.20
2018-05-14T15:29:08.164Z,101536.14
2018-05-14T15:31:34.370Z,101535.09
2018-05-14T15:34:00.535Z,101540.56
2018-05-14T15:36:26.710Z,101533.02
2018-05-14T15:38:52.910Z,101533.52
2018-05-14T15:41:19.158Z,101533.02
2018-05-14T15:43:45.283Z,101523.55
2018-05-14T15:46:11.460Z,101525.81
2018-05-14T15:48:37.613Z,101527.48
2018-05-14T15:51:03.776Z,101534.72
2018-05-14T15:53:30.353Z,101527.10
2018-05-14T15:55:56.520Z,101530.42
2018-05-14T15:58:22.677Z,101530.45
2018-05-14T16:00:48.862Z,101529.38
2018-05-14T16:03:15.016Z,101522.20
2018-05-14T16:05:41.230Z,101525.78
2018-05-14T16:08:07.511Z,101529.73
2018-05-14T16:10:33.888Z,101532.77
2018-05-14T16:13:00.042Z,101535.25
2018-05-14T16:15:26.625Z,101530.53
2018-05-14T16:17:53.757Z,101532.31
2018-05-14T16:20:22.307Z,101535.55
2018-05-14T16:22:48.532Z,101532.20
2018-05-14T16:25:14.739Z,101537.55
2018-05-14T16:27:40.885Z,101531.75
2018-05-14T16:30:07.040Z,101530.61
2018-05-14T16:32:33.359Z,101527.07
2018-05-14T16:34:59.605Z,101530.23
2018-05-14T16:37:25.761Z,101532.94
2018-05-14T16:39:51.948Z,101529.42
2018-05-14T16:42:18.107Z,101528.70
2018-05-14T16:44:44.276Z,101523.81
2018-05-14T16:53:03.997Z,101531.78
2018-05-14T16:55:30.156Z,101528.98
2018-05-14T16:57:56.452Z,101530.11
2018-05-14T17:00:23.018Z,101531.08
2018-05-14T17:02:50.709Z,101531.32
2018-05-14T17:05:17.170Z,101533.50
2018-05-14T17:07:43.861Z,101534.95
2018-05-14T17:10:10.015Z,101533.89
2018-05-14T17:12:36.161Z,101533.59
2018-05-14T17:15:02.497Z,101538.46
2018-05-14T17:17:28.682Z,101540.41
2018-05-14T17:19:54.908Z,101538.99
2018-05-14T17:22:23.272Z,101539.81
2018-05-14T17:24:49.627Z,101540.46
2018-05-14T17:27:15.785Z,101539.89
2018-05-14T17:29:41.916Z,101546.91
2018-05-14T17:32:08.515Z,101538.80
2018-05-14T17:34:34.946Z,101548.27
2018-05-14T17:37:01.105Z,101539.83
2018-05-14T17:39:27.304Z,101546.86
2018-05-14T17:41:53.445Z,101549.15
2018-05-14T17:44:19.589Z,101555.01
2018-05-14T17:46:45.760Z,101555.95
2018-05-14T17:49:12.449Z,101554.38
2018-05-14T17:51:38.589Z,101553.73
2018-05-14T17:54:04.748Z,101558.85
2018-05-14T17:56:30.994Z,101569.30
2018-05-14T17:58:57.169Z,101564.73
2018-05-14T18:01:23.326Z,101560.78
2018-05-14T18:03:49.503Z,101561.38
2018-05-14T18:06:15.637Z,101570.19
2018-05-14T18:08:42.040Z,101568.88
2018-05-14T18:11:08.325Z,101568.13
2018-05-14T18:13:34.938Z,101570.72
2018-05-14T18:16:01.068Z,101569.73
2018-05-14T18:18:27.234Z,101578.22
2018-05-14T18:20:53.441Z,101572.70
2018-05-14T18:23:22.497Z,101572.78
2018-05-14T18:25:54.892Z,101574.84
2018-05-14T18:28:21.078Z,101572.86
2018-05-14T18:30:47.229Z,101573.98
2018-05-14T18:33:13.452Z,101573.52
2018-05-14T18:35:43.533Z,101576.98
2018-05-14T18:38:09.709Z,101575.17
2018-05-14T18:40:36.137Z,101584.62
2018-05-14T18:43:02.298Z,101585.47
2018-05-14T18:45:28.441Z,101589.83
2018-05-14T18:47:54.646Z,101587.13
2018-05-14T18:50:20.792Z,101592.44
2018-05-14T18:52:46.951Z,101594.28
2018-05-14T18:55:14.532Z,101597.52
2018-05-14T18:57:40.674Z,101600.48
2018-05-14T19:00:06.894Z,101598.59
2018-05-14T19:02:33.021Z,101602.45
2018-05-14T19:04:59.172Z,101603.94
2018-05-14T19:07:25.339Z,101616.31
2018-05-14T19:09:51.481Z,101616.02
2018-05-14T19:12:17.754Z,101621.27
2018-05-14T19:14:49.988Z,101625.48
2018-05-14T19:17:22.410Z,101628.49
2018-05-14T19:19:48.554Z,101628.95
2018-05-14T19:22:20.733Z,101632.61
2018-05-14T19:24:46.936Z,101636.38
2018-05-14T19:27:13.074Z,101634.77
2018-05-14T19:29:39.248Z,101643.26
2018-05-14T19:32:05.432Z,101643.83
2018-05-14T19:34:37.710Z,101647.05
2018-05-14T19:37:03.851Z,101652.13
2018-05-14T19:39:36.156Z,101654.37
2018-05-14T19:42:03.747Z,101661.17
2018-05-14T19:44:30.194Z,101669.70
2018-05-14T19:46:56.367Z,101666.76
2018-05-14T19:49:22.531Z,101671.73
2018-05-14T19:51:48.692Z,101675.34
2018-05-14T19:54:14.929Z,101679.05
2018-05-14T19:56:41.149Z,101685.73
2018-05-14T19:59:07.290Z,101684.41
2018-05-14T20:01:33.425Z,101686.34
2018-05-14T20:03:59.617Z,101683.34
2018-05-14T20:06:26.181Z,101686.95
2018-05-14T20:08:52.577Z,101692.76
2018-05-14T20:11:18.714Z,101698.63
2018-05-14T20:13:45.111Z,101692.98
2018-05-14T20:16:11.263Z,101701.00
2018-05-14T20:18:37.434Z,101696.18
2018-05-14T20:21:03.611Z,101698.89
2018-05-14T20:23:29.819Z,101708.33
2018-05-14T20:25:55.989Z,101706.23
2018-05-14T20:28:22.248Z,101709.04
2018-05-14T20:30:48.383Z,101709.11
2018-05-14T20:33:14.518Z,101702.57
2018-05-14T20:35:40.802Z,101710.20
2018-05-14T20:38:06.943Z,101713.31
2018-05-14T20:40:33.339Z,101710.36
2018-05-14T20:42:59.972Z,101718.37
2018-05-14T20:45:26.132Z,101717.54
2018-05-14T20:47:52.265Z,101710.58
2018-05-14T20:50:18.431Z,101713.27
2018-05-14T20:52:44.588Z,101714.22
2018-05-14T20:55:11.014Z,101718.25
2018-05-14T20:57:37.183Z,101713.49
2018-05-14T21:00:03.386Z,101721.55
2018-05-14T21:02:29.547Z,101717.67
2018-05-14T21:04:55.677Z,101718.66
2018-05-14T21:07:22.195Z,101717.39
2018-05-14T21:09:48.317Z,101718.86
2018-05-14T21:12:14.445Z,101722.93
2018-05-14T21:14:40.640Z,101728.29
2018-05-14T21:17:07.063Z,101731.44
2018-05-14T21:19:33.226Z,101735.08
2018-05-14T21:21:59.357Z,101738.22
2018-05-14T21:24:25.558Z,101744.50
2018-05-14T21:26:51.849Z,101743.38
2018-05-14T21:29:18.309Z,101743.03
2018-05-14T21:31:44.739Z,101745.29
2018-05-14T21:34:10.989Z,101746.76
2018-05-14T21:36:37.171Z,101750.25
2018-05-14T21:39:03.732Z,101745.78
2018-05-14T21:41:29.857Z,101755.41
2018-05-14T21:43:56.013Z,101755.41
2018-05-14T21:46:22.420Z,101749.70
2018-05-14T21:48:48.582Z,101755.89
2018-05-14T21:51:14.704Z,101757.28
2018-05-14T21:53:40.964Z,101758.69
2018-05-14T21:56:07.090Z,101761.30
2018-05-14T21:58:33.228Z,101766.56
2018-05-14T22:00:59.396Z,101761.73
2018-05-14T22:03:25.526Z,101767.97
2018-05-14T22:05:52.475Z,101772.00
2018-05-14T22:08:18.738Z,101775.97
2018-05-14T22:10:44.857Z,101773.33
2018-05-14T22:13:10.982Z,101773.03
2018-05-14T22:15:37.562Z,101772.34
2018-05-14T22:18:03.700Z,101781.17
2018-05-14T22:20:29.838Z,101779.91
2018-05-14T22:22:56.658Z,101774.22
2018-05-14T22:25:22.839Z,101780.45
2018-05-14T22:27:48.969Z,101781.42
2018-05-14T22:30:15.121Z,101777.89
2018-05-14T22:32:41.272Z,101776.56
2018-05-14T22:35:07.432Z,101773.02
2018-05-14T22:37:33.818Z,101778.77
2018-05-14T22:39:59.944Z,101777.45
2018-05-14T22:42:26.215Z,101779.70
2018-05-14T22:44:52.329Z,101782.79
2018-05-14T22:47:18.448Z,101780.59
2018-05-14T22:49:44.607Z,101779.30
2018-05-14T22:52:10.738Z,101780.64
2018-05-14T22:54:36.893Z,101779.31
2018-05-14T22:57:03.335Z,101782.49
2018-05-14T22:59:29.497Z,101790.53
2018-05-14T23:01:55.645Z,101784.84
2018-05-14T23:04:22.125Z,101790.58
2018-05-14T23:06:48.288Z,101790.53
2018-05-14T23:09:14.413Z,101790.58
2018-05-14T23:11:40.550Z,101787.88
2018-05-14T23:14:06.786Z,101782.67
2018-05-14T23:16:32.943Z,101780.91
2018-05-14T23:18:59.150Z,101780.03
2018-05-14T23:21:25.621Z,101786.30
2018-05-14T23:23:51.740Z,101788.11
2018-05-14T23:26:18.141Z,101788.16
2018-05-14T23:28:44.280Z,101786.88
2018-05-14T23:31:10.412Z,101778.98
2018-05-14T23:33:36.560Z,101775.97
2018-05-14T23:36:02.712Z,101777.30
2018-05-14T23:38:29.117Z,101770.28
2018-05-14T23:40:55.296Z,101769.45
2018-05-14T23:43:21.430Z,101769.45
2018-05-14T23:45:47.572Z,101774.80
2018-05-14T23:48:20.682Z,101772.19
2018-05-14T23:50:46.813Z,101770.02
2018-05-14T23:53:13.339Z,101776.21
2018-05-14T23:55:39.773Z,101772.72
2018-05-14T23:58:05.900Z,101770.60
